sensor_id;sensor_type;location;lat;lon;timestamp;P1;durP1;ratioP1;P2;durP2;ratioP2
79480;SDS011;68944;48.262;14.208;2024-01-30T00:01:15;23.42;;;10.70;;
79480;SDS011;68944;48.262;14.208;2024-01-30T00:03:40;19.75;;;9.35;;
79480;SDS011;68944;48.262;14.208;2024-01-30T00:06:06;24.42;;;9.85;;
79480;SDS011;68944;48.262;14.208;2024-01-30T00:08:32;21.55;;;10.50;;
79480;SDS011;68944;48.262;14.208;2024-01-30T00:10:57;23.48;;;11.13;;
79480;SDS011;68944;48.262;14.208;2024-01-30T00:13:22;20.95;;;10.55;;
79480;SDS011;68944;48.262;14.208;2024-01-30T00:15:48;21.42;;;10.30;;
79480;SDS011;68944;48.262;14.208;2024-01-30T00:18:13;21.95;;;11.27;;
79480;SDS011;68944;48.262;14.208;2024-01-30T00:20:39;27.98;;;13.32;;
79480;SDS011;68944;48.262;14.208;2024-01-30T00:23:04;24.52;;;11.35;;
79480;SDS011;68944;48.262;14.208;2024-01-30T00:25:30;30.40;;;12.38;;
79480;SDS011;68944;48.262;14.208;2024-01-30T00:27:56;21.25;;;11.02;;
79480;SDS011;68944;48.262;14.208;2024-01-30T00:30:21;28.40;;;12.40;;
79480;SDS011;68944;48.262;14.208;2024-01-30T00:32:47;26.50;;;11.93;;
79480;SDS011;68944;48.262;14.208;2024-01-30T00:35:12;22.60;;;11.43;;
79480;SDS011;68944;48.262;14.208;2024-01-30T00:37:38;26.95;;;13.40;;
79480;SDS011;68944;48.262;14.208;2024-01-30T00:40:03;22.83;;;11.07;;
79480;SDS011;68944;48.262;14.208;2024-01-30T00:42:31;27.67;;;12.95;;
79480;SDS011;68944;48.262;14.208;2024-01-30T00:44:56;23.73;;;11.35;;
79480;SDS011;68944;48.262;14.208;2024-01-30T00:47:22;23.52;;;11.60;;
79480;SDS011;68944;48.262;14.208;2024-01-30T00:49:48;26.30;;;12.13;;
79480;SDS011;68944;48.262;14.208;2024-01-30T00:52:13;25.10;;;11.95;;
79480;SDS011;68944;48.262;14.208;2024-01-30T00:54:39;21.15;;;11.50;;
79480;SDS011;68944;48.262;14.208;2024-01-30T00:57:04;22.67;;;11.25;;
79480;SDS011;68944;48.262;14.208;2024-01-30T00:59:30;25.83;;;12.40;;
79480;SDS011;68944;48.262;14.208;2024-01-30T01:01:55;25.52;;;12.07;;
79480;SDS011;68944;48.262;14.208;2024-01-30T01:04:21;24.67;;;11.07;;
79480;SDS011;68944;48.262;14.208;2024-01-30T01:06:46;25.70;;;11.43;;
79480;SDS011;68944;48.262;14.208;2024-01-30T01:09:13;24.33;;;11.30;;
79480;SDS011;68944;48.262;14.208;2024-01-30T01:11:41;30.88;;;11.15;;
79480;SDS011;68944;48.262;14.208;2024-01-30T01:14:07;23.17;;;10.68;;
79480;SDS011;68944;48.262;14.208;2024-01-30T01:16:32;22.35;;;10.38;;
79480;SDS011;68944;48.262;14.208;2024-01-30T01:18:58;23.08;;;10.63;;
79480;SDS011;68944;48.262;14.208;2024-01-30T01:21:26;27.95;;;11.48;;
79480;SDS011;68944;48.262;14.208;2024-01-30T01:23:52;24.92;;;11.20;;
79480;SDS011;68944;48.262;14.208;2024-01-30T01:26:17;19.50;;;10.23;;
79480;SDS011;68944;48.262;14.208;2024-01-30T01:28:43;22.10;;;10.13;;
79480;SDS011;68944;48.262;14.208;2024-01-30T01:31:08;18.50;;;10.25;;
79480;SDS011;68944;48.262;14.208;2024-01-30T01:33:34;21.63;;;10.20;;
79480;SDS011;68944;48.262;14.208;2024-01-30T01:36:02;24.73;;;10.10;;
79480;SDS011;68944;48.262;14.208;2024-01-30T01:38:28;18.60;;;9.35;;
79480;SDS011;68944;48.262;14.208;2024-01-30T01:40:54;22.92;;;10.45;;
79480;SDS011;68944;48.262;14.208;2024-01-30T01:43:19;25.23;;;10.30;;
79480;SDS011;68944;48.262;14.208;2024-01-30T01:45:45;24.67;;;10.32;;
79480;SDS011;68944;48.262;14.208;2024-01-30T01:48:11;21.17;;;10.52;;
79480;SDS011;68944;48.262;14.208;2024-01-30T01:50:37;20.15;;;9.23;;
79480;SDS011;68944;48.262;14.208;2024-01-30T01:53:04;20.70;;;9.25;;
79480;SDS011;68944;48.262;14.208;2024-01-30T01:55:32;22.73;;;10.23;;
79480;SDS011;68944;48.262;14.208;2024-01-30T01:58:00;19.30;;;9.70;;
79480;SDS011;68944;48.262;14.208;2024-01-30T02:00:26;20.27;;;9.68;;
79480;SDS011;68944;48.262;14.208;2024-01-30T02:02:52;19.27;;;9.02;;
79480;SDS011;68944;48.262;14.208;2024-01-30T02:05:20;24.05;;;11.43;;
79480;SDS011;68944;48.262;14.208;2024-01-30T02:07:46;19.67;;;9.75;;
79480;SDS011;68944;48.262;14.208;2024-01-30T02:10:12;27.27;;;11.15;;
79480;SDS011;68944;48.262;14.208;2024-01-30T02:12:38;24.98;;;10.88;;
79480;SDS011;68944;48.262;14.208;2024-01-30T02:15:03;20.75;;;9.07;;
79480;SDS011;68944;48.262;14.208;2024-01-30T02:17:30;19.50;;;9.65;;
79480;SDS011;68944;48.262;14.208;2024-01-30T02:19:57;15.80;;;8.57;;
79480;SDS011;68944;48.262;14.208;2024-01-30T02:22:22;19.75;;;9.32;;
79480;SDS011;68944;48.262;14.208;2024-01-30T02:24:49;21.23;;;10.75;;
79480;SDS011;68944;48.262;14.208;2024-01-30T02:27:15;21.02;;;10.00;;
79480;SDS011;68944;48.262;14.208;2024-01-30T02:29:40;23.92;;;10.95;;
79480;SDS011;68944;48.262;14.208;2024-01-30T02:32:06;26.02;;;9.90;;
79480;SDS011;68944;48.262;14.208;2024-01-30T02:34:32;19.67;;;8.82;;
79480;SDS011;68944;48.262;14.208;2024-01-30T02:36:59;21.05;;;9.40;;
79480;SDS011;68944;48.262;14.208;2024-01-30T02:39:24;19.40;;;10.27;;
79480;SDS011;68944;48.262;14.208;2024-01-30T02:41:50;21.10;;;9.95;;
79480;SDS011;68944;48.262;14.208;2024-01-30T02:44:16;18.58;;;8.85;;
79480;SDS011;68944;48.262;14.208;2024-01-30T02:46:41;19.77;;;9.10;;
79480;SDS011;68944;48.262;14.208;2024-01-30T02:49:07;19.67;;;9.52;;
79480;SDS011;68944;48.262;14.208;2024-01-30T02:51:32;20.52;;;9.05;;
79480;SDS011;68944;48.262;14.208;2024-01-30T02:53:57;21.40;;;9.48;;
79480;SDS011;68944;48.262;14.208;2024-01-30T02:56:23;25.23;;;9.98;;
79480;SDS011;68944;48.262;14.208;2024-01-30T02:58:48;19.08;;;10.23;;
79480;SDS011;68944;48.262;14.208;2024-01-30T03:01:14;21.48;;;9.73;;
79480;SDS011;68944;48.262;14.208;2024-01-30T03:03:39;15.32;;;9.05;;
79480;SDS011;68944;48.262;14.208;2024-01-30T03:06:05;18.80;;;9.75;;
79480;SDS011;68944;48.262;14.208;2024-01-30T03:08:32;20.67;;;9.70;;
79480;SDS011;68944;48.262;14.208;2024-01-30T03:10:57;19.77;;;9.45;;
79480;SDS011;68944;48.262;14.208;2024-01-30T03:13:23;20.80;;;9.60;;
79480;SDS011;68944;48.262;14.208;2024-01-30T03:15:50;18.75;;;9.38;;
79480;SDS011;68944;48.262;14.208;2024-01-30T03:18:15;23.95;;;9.85;;
79480;SDS011;68944;48.262;14.208;2024-01-30T03:20:41;27.17;;;11.48;;
79480;SDS011;68944;48.262;14.208;2024-01-30T03:23:07;22.83;;;10.65;;
79480;SDS011;68944;48.262;14.208;2024-01-30T03:25:33;20.98;;;9.52;;
79480;SDS011;68944;48.262;14.208;2024-01-30T03:27:58;19.88;;;9.65;;
79480;SDS011;68944;48.262;14.208;2024-01-30T03:30:24;22.02;;;9.95;;
79480;SDS011;68944;48.262;14.208;2024-01-30T03:32:49;22.55;;;10.02;;
79480;SDS011;68944;48.262;14.208;2024-01-30T03:35:15;20.58;;;9.70;;
79480;SDS011;68944;48.262;14.208;2024-01-30T03:37:41;21.67;;;9.73;;
79480;SDS011;68944;48.262;14.208;2024-01-30T03:40:06;21.95;;;10.40;;
79480;SDS011;68944;48.262;14.208;2024-01-30T03:42:32;21.60;;;10.27;;
79480;SDS011;68944;48.262;14.208;2024-01-30T03:44:59;23.30;;;10.30;;
79480;SDS011;68944;48.262;14.208;2024-01-30T03:47:24;19.75;;;9.82;;
79480;SDS011;68944;48.262;14.208;2024-01-30T03:49:49;23.23;;;10.05;;
79480;SDS011;68944;48.262;14.208;2024-01-30T03:52:15;21.30;;;9.63;;
79480;SDS011;68944;48.262;14.208;2024-01-30T03:54:40;22.70;;;9.93;;
79480;SDS011;68944;48.262;14.208;2024-01-30T03:57:06;20.00;;;10.18;;
79480;SDS011;68944;48.262;14.208;2024-01-30T03:59:32;20.65;;;10.57;;
79480;SDS011;68944;48.262;14.208;2024-01-30T04:01:58;22.23;;;10.73;;
79480;SDS011;68944;48.262;14.208;2024-01-30T04:04:23;22.20;;;9.75;;
79480;SDS011;68944;48.262;14.208;2024-01-30T04:06:49;22.65;;;9.90;;
79480;SDS011;68944;48.262;14.208;2024-01-30T04:09:14;19.23;;;9.88;;
79480;SDS011;68944;48.262;14.208;2024-01-30T04:11:40;22.40;;;10.60;;
79480;SDS011;68944;48.262;14.208;2024-01-30T04:14:10;22.98;;;11.32;;
79480;SDS011;68944;48.262;14.208;2024-01-30T04:16:36;18.70;;;9.25;;
79480;SDS011;68944;48.262;14.208;2024-01-30T04:19:01;24.23;;;10.13;;
79480;SDS011;68944;48.262;14.208;2024-01-30T04:21:27;24.08;;;9.65;;
79480;SDS011;68944;48.262;14.208;2024-01-30T04:23:52;23.02;;;11.18;;
79480;SDS011;68944;48.262;14.208;2024-01-30T04:26:18;27.10;;;11.32;;
79480;SDS011;68944;48.262;14.208;2024-01-30T04:28:44;24.42;;;9.68;;
79480;SDS011;68944;48.262;14.208;2024-01-30T04:31:10;18.63;;;9.88;;
79480;SDS011;68944;48.262;14.208;2024-01-30T04:33:36;18.63;;;8.75;;
79480;SDS011;68944;48.262;14.208;2024-01-30T04:36:02;20.98;;;9.73;;
79480;SDS011;68944;48.262;14.208;2024-01-30T04:38:28;18.30;;;9.68;;
79480;SDS011;68944;48.262;14.208;2024-01-30T04:40:54;17.50;;;9.15;;
79480;SDS011;68944;48.262;14.208;2024-01-30T04:43:19;21.52;;;9.27;;
79480;SDS011;68944;48.262;14.208;2024-01-30T04:45:45;20.17;;;9.27;;
79480;SDS011;68944;48.262;14.208;2024-01-30T04:48:11;22.40;;;9.95;;
79480;SDS011;68944;48.262;14.208;2024-01-30T04:50:36;19.98;;;9.07;;
79480;SDS011;68944;48.262;14.208;2024-01-30T04:53:02;21.05;;;9.43;;
79480;SDS011;68944;48.262;14.208;2024-01-30T04:55:27;26.63;;;9.00;;
79480;SDS011;68944;48.262;14.208;2024-01-30T04:57:53;20.50;;;8.90;;
79480;SDS011;68944;48.262;14.208;2024-01-30T05:00:18;19.33;;;9.27;;
79480;SDS011;68944;48.262;14.208;2024-01-30T05:02:44;22.90;;;9.73;;
79480;SDS011;68944;48.262;14.208;2024-01-30T05:05:09;17.88;;;9.05;;
79480;SDS011;68944;48.262;14.208;2024-01-30T05:07:36;18.15;;;9.13;;
79480;SDS011;68944;48.262;14.208;2024-01-30T05:10:01;19.95;;;8.25;;
79480;SDS011;68944;48.262;14.208;2024-01-30T05:12:28;21.73;;;8.95;;
79480;SDS011;68944;48.262;14.208;2024-01-30T05:14:54;24.05;;;9.80;;
79480;SDS011;68944;48.262;14.208;2024-01-30T05:17:20;17.30;;;8.93;;
79480;SDS011;68944;48.262;14.208;2024-01-30T05:19:46;21.38;;;9.27;;
79480;SDS011;68944;48.262;14.208;2024-01-30T05:22:12;21.88;;;10.05;;
79480;SDS011;68944;48.262;14.208;2024-01-30T05:24:41;23.40;;;10.55;;
79480;SDS011;68944;48.262;14.208;2024-01-30T05:27:07;20.48;;;10.32;;
79480;SDS011;68944;48.262;14.208;2024-01-30T05:29:33;21.40;;;10.10;;
79480;SDS011;68944;48.262;14.208;2024-01-30T05:31:58;29.50;;;13.68;;
79480;SDS011;68944;48.262;14.208;2024-01-30T05:34:24;26.98;;;11.68;;
79480;SDS011;68944;48.262;14.208;2024-01-30T05:36:49;27.17;;;12.02;;
79480;SDS011;68944;48.262;14.208;2024-01-30T05:39:15;25.98;;;11.27;;
79480;SDS011;68944;48.262;14.208;2024-01-30T05:41:40;19.77;;;10.70;;
79480;SDS011;68944;48.262;14.208;2024-01-30T05:44:06;35.45;;;10.50;;
79480;SDS011;68944;48.262;14.208;2024-01-30T05:46:31;24.25;;;11.18;;
79480;SDS011;68944;48.262;14.208;2024-01-30T05:48:58;22.05;;;10.45;;
79480;SDS011;68944;48.262;14.208;2024-01-30T05:51:23;20.02;;;9.70;;
79480;SDS011;68944;48.262;14.208;2024-01-30T05:53:49;21.50;;;11.23;;
79480;SDS011;68944;48.262;14.208;2024-01-30T05:56:15;19.35;;;9.55;;
79480;SDS011;68944;48.262;14.208;2024-01-30T05:58:41;21.58;;;11.88;;
79480;SDS011;68944;48.262;14.208;2024-01-30T06:01:08;24.17;;;12.02;;
79480;SDS011;68944;48.262;14.208;2024-01-30T06:03:34;24.90;;;12.25;;
79480;SDS011;68944;48.262;14.208;2024-01-30T06:05:59;22.70;;;11.18;;
79480;SDS011;68944;48.262;14.208;2024-01-30T06:08:25;26.95;;;11.68;;
79480;SDS011;68944;48.262;14.208;2024-01-30T06:10:50;23.23;;;11.65;;
79480;SDS011;68944;48.262;14.208;2024-01-30T06:13:16;34.65;;;12.20;;
79480;SDS011;68944;48.262;14.208;2024-01-30T06:15:41;22.67;;;10.65;;
79480;SDS011;68944;48.262;14.208;2024-01-30T06:18:07;31.20;;;11.93;;
79480;SDS011;68944;48.262;14.208;2024-01-30T06:20:32;24.88;;;11.57;;
79480;SDS011;68944;48.262;14.208;2024-01-30T06:22:58;26.65;;;12.15;;
79480;SDS011;68944;48.262;14.208;2024-01-30T06:25:23;29.83;;;11.80;;
79480;SDS011;68944;48.262;14.208;2024-01-30T06:27:49;25.77;;;11.52;;
79480;SDS011;68944;48.262;14.208;2024-01-30T06:30:14;26.88;;;12.05;;
79480;SDS011;68944;48.262;14.208;2024-01-30T06:32:40;23.92;;;11.60;;
79480;SDS011;68944;48.262;14.208;2024-01-30T06:35:06;20.80;;;10.57;;
79480;SDS011;68944;48.262;14.208;2024-01-30T06:37:31;22.45;;;11.63;;
79480;SDS011;68944;48.262;14.208;2024-01-30T06:39:57;25.83;;;11.15;;
79480;SDS011;68944;48.262;14.208;2024-01-30T06:42:22;20.85;;;10.45;;
79480;SDS011;68944;48.262;14.208;2024-01-30T06:44:48;29.35;;;11.90;;
79480;SDS011;68944;48.262;14.208;2024-01-30T06:47:13;21.15;;;10.32;;
79480;SDS011;68944;48.262;14.208;2024-01-30T06:49:39;24.77;;;11.43;;
79480;SDS011;68944;48.262;14.208;2024-01-30T06:52:08;21.83;;;11.00;;
79480;SDS011;68944;48.262;14.208;2024-01-30T06:54:33;23.63;;;11.80;;
79480;SDS011;68944;48.262;14.208;2024-01-30T06:56:59;30.30;;;12.27;;
79480;SDS011;68944;48.262;14.208;2024-01-30T06:59:25;25.33;;;10.93;;
79480;SDS011;68944;48.262;14.208;2024-01-30T07:01:50;23.80;;;11.07;;
79480;SDS011;68944;48.262;14.208;2024-01-30T07:04:16;24.80;;;10.90;;
79480;SDS011;68944;48.262;14.208;2024-01-30T07:06:43;24.38;;;12.02;;
79480;SDS011;68944;48.262;14.208;2024-01-30T07:09:08;24.10;;;11.63;;
79480;SDS011;68944;48.262;14.208;2024-01-30T07:11:34;28.95;;;12.65;;
79480;SDS011;68944;48.262;14.208;2024-01-30T07:13:59;25.40;;;11.10;;
79480;SDS011;68944;48.262;14.208;2024-01-30T07:16:25;27.25;;;11.43;;
79480;SDS011;68944;48.262;14.208;2024-01-30T07:18:51;23.70;;;11.75;;
79480;SDS011;68944;48.262;14.208;2024-01-30T07:21:16;23.50;;;12.18;;
79480;SDS011;68944;48.262;14.208;2024-01-30T07:23:42;28.95;;;12.38;;
79480;SDS011;68944;48.262;14.208;2024-01-30T07:26:08;22.10;;;10.88;;
79480;SDS011;68944;48.262;14.208;2024-01-30T07:28:34;22.88;;;11.18;;
79480;SDS011;68944;48.262;14.208;2024-01-30T07:31:00;28.58;;;11.45;;
79480;SDS011;68944;48.262;14.208;2024-01-30T07:33:26;24.60;;;11.40;;
79480;SDS011;68944;48.262;14.208;2024-01-30T07:35:52;28.48;;;12.70;;
79480;SDS011;68944;48.262;14.208;2024-01-30T07:38:18;28.02;;;12.90;;
79480;SDS011;68944;48.262;14.208;2024-01-30T07:40:44;25.75;;;12.32;;
79480;SDS011;68944;48.262;14.208;2024-01-30T07:43:10;29.33;;;12.25;;
79480;SDS011;68944;48.262;14.208;2024-01-30T07:45:35;24.08;;;12.10;;
79480;SDS011;68944;48.262;14.208;2024-01-30T07:48:02;24.17;;;12.30;;
79480;SDS011;68944;48.262;14.208;2024-01-30T07:50:28;25.30;;;12.18;;
79480;SDS011;68944;48.262;14.208;2024-01-30T07:52:55;25.27;;;12.00;;
79480;SDS011;68944;48.262;14.208;2024-01-30T07:55:21;27.88;;;12.68;;
79480;SDS011;68944;48.262;14.208;2024-01-30T07:57:57;31.80;;;12.40;;
79480;SDS011;68944;48.262;14.208;2024-01-30T08:00:24;28.80;;;12.77;;
79480;SDS011;68944;48.262;14.208;2024-01-30T08:02:51;27.40;;;12.50;;
79480;SDS011;68944;48.262;14.208;2024-01-30T08:05:19;28.70;;;12.48;;
79480;SDS011;68944;48.262;14.208;2024-01-30T08:07:47;27.35;;;12.25;;
79480;SDS011;68944;48.262;14.208;2024-01-30T08:10:13;23.83;;;11.50;;
79480;SDS011;68944;48.262;14.208;2024-01-30T08:12:39;24.88;;;12.15;;
79480;SDS011;68944;48.262;14.208;2024-01-30T08:15:05;24.83;;;11.32;;
79480;SDS011;68944;48.262;14.208;2024-01-30T08:17:31;25.08;;;11.32;;
79480;SDS011;68944;48.262;14.208;2024-01-30T08:19:56;25.85;;;12.02;;
79480;SDS011;68944;48.262;14.208;2024-01-30T08:22:22;25.63;;;11.52;;
79480;SDS011;68944;48.262;14.208;2024-01-30T08:24:48;25.40;;;11.63;;
79480;SDS011;68944;48.262;14.208;2024-01-30T08:27:13;28.05;;;12.13;;
79480;SDS011;68944;48.262;14.208;2024-01-30T08:29:39;24.92;;;11.85;;
79480;SDS011;68944;48.262;14.208;2024-01-30T08:32:05;25.30;;;12.52;;
79480;SDS011;68944;48.262;14.208;2024-01-30T08:34:31;25.05;;;12.43;;
79480;SDS011;68944;48.262;14.208;2024-01-30T08:36:56;28.20;;;14.20;;
79480;SDS011;68944;48.262;14.208;2024-01-30T08:39:22;31.85;;;14.30;;
79480;SDS011;68944;48.262;14.208;2024-01-30T08:41:47;33.90;;;14.32;;
79480;SDS011;68944;48.262;14.208;2024-01-30T08:44:13;33.65;;;14.10;;
79480;SDS011;68944;48.262;14.208;2024-01-30T08:46:38;39.15;;;15.30;;
79480;SDS011;68944;48.262;14.208;2024-01-30T08:49:04;31.38;;;14.07;;
79480;SDS011;68944;48.262;14.208;2024-01-30T08:51:30;33.50;;;14.20;;
79480;SDS011;68944;48.262;14.208;2024-01-30T08:53:55;33.15;;;15.43;;
79480;SDS011;68944;48.262;14.208;2024-01-30T08:56:22;31.92;;;14.63;;
79480;SDS011;68944;48.262;14.208;2024-01-30T08:58:47;28.73;;;13.45;;
79480;SDS011;68944;48.262;14.208;2024-01-30T09:01:13;33.10;;;13.80;;
79480;SDS011;68944;48.262;14.208;2024-01-30T09:03:39;30.33;;;12.90;;
79480;SDS011;68944;48.262;14.208;2024-01-30T09:06:09;33.03;;;14.70;;
79480;SDS011;68944;48.262;14.208;2024-01-30T09:08:35;28.42;;;13.63;;
79480;SDS011;68944;48.262;14.208;2024-01-30T09:11:08;26.60;;;12.20;;
79480;SDS011;68944;48.262;14.208;2024-01-30T09:13:37;31.23;;;14.60;;
79480;SDS011;68944;48.262;14.208;2024-01-30T09:16:03;33.92;;;15.32;;
79480;SDS011;68944;48.262;14.208;2024-01-30T09:18:28;31.42;;;15.20;;
79480;SDS011;68944;48.262;14.208;2024-01-30T09:20:54;27.95;;;14.00;;
79480;SDS011;68944;48.262;14.208;2024-01-30T09:23:19;34.83;;;14.32;;
79480;SDS011;68944;48.262;14.208;2024-01-30T09:25:45;30.08;;;14.00;;
79480;SDS011;68944;48.262;14.208;2024-01-30T09:28:10;29.00;;;13.70;;
79480;SDS011;68944;48.262;14.208;2024-01-30T09:30:36;30.02;;;14.27;;
79480;SDS011;68944;48.262;14.208;2024-01-30T09:33:02;34.88;;;15.43;;
79480;SDS011;68944;48.262;14.208;2024-01-30T09:35:27;49.42;;;15.65;;
79480;SDS011;68944;48.262;14.208;2024-01-30T09:37:54;32.15;;;14.75;;
79480;SDS011;68944;48.262;14.208;2024-01-30T09:40:19;31.80;;;14.48;;
79480;SDS011;68944;48.262;14.208;2024-01-30T09:42:49;36.97;;;15.38;;
79480;SDS011;68944;48.262;14.208;2024-01-30T09:45:15;35.40;;;14.25;;
79480;SDS011;68944;48.262;14.208;2024-01-30T09:47:44;35.83;;;15.27;;
79480;SDS011;68944;48.262;14.208;2024-01-30T09:50:11;33.00;;;16.10;;
79480;SDS011;68944;48.262;14.208;2024-01-30T09:52:39;33.20;;;14.65;;
79480;SDS011;68944;48.262;14.208;2024-01-30T09:55:06;34.90;;;16.13;;
79480;SDS011;68944;48.262;14.208;2024-01-30T09:57:32;35.75;;;16.13;;
79480;SDS011;68944;48.262;14.208;2024-01-30T09:59:58;32.85;;;15.38;;
79480;SDS011;68944;48.262;14.208;2024-01-30T10:02:23;31.67;;;14.48;;
79480;SDS011;68944;48.262;14.208;2024-01-30T10:04:49;35.42;;;17.08;;
79480;SDS011;68944;48.262;14.208;2024-01-30T10:07:15;36.35;;;15.18;;
79480;SDS011;68944;48.262;14.208;2024-01-30T10:09:41;30.95;;;14.20;;
79480;SDS011;68944;48.262;14.208;2024-01-30T10:12:08;36.05;;;15.27;;
79480;SDS011;68944;48.262;14.208;2024-01-30T10:14:37;32.60;;;15.48;;
79480;SDS011;68944;48.262;14.208;2024-01-30T10:17:03;39.75;;;15.82;;
79480;SDS011;68944;48.262;14.208;2024-01-30T10:19:29;37.97;;;15.23;;
79480;SDS011;68944;48.262;14.208;2024-01-30T10:21:54;31.50;;;14.70;;
79480;SDS011;68944;48.262;14.208;2024-01-30T10:24:23;31.23;;;14.40;;
79480;SDS011;68944;48.262;14.208;2024-01-30T10:26:49;32.53;;;16.23;;
79480;SDS011;68944;48.262;14.208;2024-01-30T10:29:16;33.13;;;14.63;;
79480;SDS011;68944;48.262;14.208;2024-01-30T10:31:42;32.97;;;15.85;;
79480;SDS011;68944;48.262;14.208;2024-01-30T10:34:07;32.67;;;14.95;;
79480;SDS011;68944;48.262;14.208;2024-01-30T10:36:33;34.75;;;16.15;;
79480;SDS011;68944;48.262;14.208;2024-01-30T10:39:05;36.22;;;14.20;;
79480;SDS011;68944;48.262;14.208;2024-01-30T10:41:31;33.97;;;15.25;;
79480;SDS011;68944;48.262;14.208;2024-01-30T10:44:08;32.38;;;15.15;;
79480;SDS011;68944;48.262;14.208;2024-01-30T10:46:35;35.35;;;15.57;;
79480;SDS011;68944;48.262;14.208;2024-01-30T10:49:02;40.42;;;15.63;;
79480;SDS011;68944;48.262;14.208;2024-01-30T10:51:28;34.53;;;15.82;;
79480;SDS011;68944;48.262;14.208;2024-01-30T10:53:54;41.00;;;17.25;;
79480;SDS011;68944;48.262;14.208;2024-01-30T10:56:21;35.25;;;16.15;;
79480;SDS011;68944;48.262;14.208;2024-01-30T10:58:53;39.03;;;17.13;;
79480;SDS011;68944;48.262;14.208;2024-01-30T11:01:21;39.72;;;16.20;;
79480;SDS011;68944;48.262;14.208;2024-01-30T11:03:52;40.78;;;17.95;;
79480;SDS011;68944;48.262;14.208;2024-01-30T11:06:19;35.15;;;15.88;;
79480;SDS011;68944;48.262;14.208;2024-01-30T11:08:59;34.38;;;14.90;;
79480;SDS011;68944;48.262;14.208;2024-01-30T11:11:51;30.63;;;14.88;;
79480;SDS011;68944;48.262;14.208;2024-01-30T11:14:24;32.45;;;15.10;;
79480;SDS011;68944;48.262;14.208;2024-01-30T11:16:51;33.25;;;15.35;;
79480;SDS011;68944;48.262;14.208;2024-01-30T11:19:22;37.67;;;15.98;;
79480;SDS011;68944;48.262;14.208;2024-01-30T11:21:52;36.35;;;16.27;;
79480;SDS011;68944;48.262;14.208;2024-01-30T11:24:22;39.38;;;16.63;;
79480;SDS011;68944;48.262;14.208;2024-01-30T11:27:10;36.35;;;16.85;;
79480;SDS011;68944;48.262;14.208;2024-01-30T11:29:37;35.28;;;17.20;;
79480;SDS011;68944;48.262;14.208;2024-01-30T11:32:03;42.30;;;16.42;;
79480;SDS011;68944;48.262;14.208;2024-01-30T11:34:29;34.45;;;16.80;;
79480;SDS011;68944;48.262;14.208;2024-01-30T11:36:59;34.15;;;16.77;;
79480;SDS011;68944;48.262;14.208;2024-01-30T11:39:28;36.72;;;16.02;;
79480;SDS011;68944;48.262;14.208;2024-01-30T11:41:55;50.35;;;21.15;;
79480;SDS011;68944;48.262;14.208;2024-01-30T11:44:21;41.42;;;18.23;;
79480;SDS011;68944;48.262;14.208;2024-01-30T11:46:51;42.90;;;17.92;;
79480;SDS011;68944;48.262;14.208;2024-01-30T11:49:17;42.70;;;17.65;;
79480;SDS011;68944;48.262;14.208;2024-01-30T11:51:43;39.53;;;18.48;;
79480;SDS011;68944;48.262;14.208;2024-01-30T11:54:11;40.88;;;18.73;;
79480;SDS011;68944;48.262;14.208;2024-01-30T11:56:37;38.20;;;16.75;;
79480;SDS011;68944;48.262;14.208;2024-01-30T11:59:06;39.95;;;18.33;;
79480;SDS011;68944;48.262;14.208;2024-01-30T12:01:31;39.88;;;16.95;;
79480;SDS011;68944;48.262;14.208;2024-01-30T12:04:00;37.35;;;17.40;;
79480;SDS011;68944;48.262;14.208;2024-01-30T12:06:26;37.85;;;16.17;;
79480;SDS011;68944;48.262;14.208;2024-01-30T12:08:59;48.78;;;18.73;;
79480;SDS011;68944;48.262;14.208;2024-01-30T12:11:26;35.33;;;16.90;;
79480;SDS011;68944;48.262;14.208;2024-01-30T12:13:55;42.00;;;17.40;;
79480;SDS011;68944;48.262;14.208;2024-01-30T12:16:21;37.67;;;17.05;;
79480;SDS011;68944;48.262;14.208;2024-01-30T12:18:47;38.80;;;16.27;;
79480;SDS011;68944;48.262;14.208;2024-01-30T12:21:15;42.33;;;17.15;;
79480;SDS011;68944;48.262;14.208;2024-01-30T12:23:41;35.42;;;16.98;;
79480;SDS011;68944;48.262;14.208;2024-01-30T12:26:07;51.65;;;17.83;;
79480;SDS011;68944;48.262;14.208;2024-01-30T12:28:33;41.58;;;17.50;;
79480;SDS011;68944;48.262;14.208;2024-01-30T12:31:05;50.75;;;19.55;;
79480;SDS011;68944;48.262;14.208;2024-01-30T12:33:30;42.22;;;18.67;;
79480;SDS011;68944;48.262;14.208;2024-01-30T12:35:57;40.90;;;18.10;;
79480;SDS011;68944;48.262;14.208;2024-01-30T12:38:26;39.03;;;16.63;;
79480;SDS011;68944;48.262;14.208;2024-01-30T12:40:55;38.13;;;17.52;;
79480;SDS011;68944;48.262;14.208;2024-01-30T12:43:21;38.13;;;18.52;;
79480;SDS011;68944;48.262;14.208;2024-01-30T12:45:48;39.40;;;18.13;;
79480;SDS011;68944;48.262;14.208;2024-01-30T12:48:13;39.55;;;18.13;;
79480;SDS011;68944;48.262;14.208;2024-01-30T12:50:39;36.40;;;16.95;;
79480;SDS011;68944;48.262;14.208;2024-01-30T12:53:05;32.47;;;16.38;;
79480;SDS011;68944;48.262;14.208;2024-01-30T12:55:31;44.65;;;18.52;;
79480;SDS011;68944;48.262;14.208;2024-01-30T12:57:56;36.58;;;16.70;;
79480;SDS011;68944;48.262;14.208;2024-01-30T13:00:22;39.40;;;16.83;;
79480;SDS011;68944;48.262;14.208;2024-01-30T13:02:48;39.63;;;17.20;;
79480;SDS011;68944;48.262;14.208;2024-01-30T13:05:14;40.10;;;17.77;;
79480;SDS011;68944;48.262;14.208;2024-01-30T13:07:39;42.10;;;17.90;;
79480;SDS011;68944;48.262;14.208;2024-01-30T13:10:05;36.42;;;17.38;;
79480;SDS011;68944;48.262;14.208;2024-01-30T13:12:31;40.60;;;18.77;;
79480;SDS011;68944;48.262;14.208;2024-01-30T13:14:59;35.33;;;17.05;;
79480;SDS011;68944;48.262;14.208;2024-01-30T13:17:30;42.00;;;18.80;;
79480;SDS011;68944;48.262;14.208;2024-01-30T13:19:56;40.63;;;17.10;;
79480;SDS011;68944;48.262;14.208;2024-01-30T13:22:22;42.22;;;19.30;;
79480;SDS011;68944;48.262;14.208;2024-01-30T13:24:48;41.05;;;18.30;;
79480;SDS011;68944;48.262;14.208;2024-01-30T13:27:14;40.42;;;17.10;;
79480;SDS011;68944;48.262;14.208;2024-01-30T13:29:39;41.15;;;18.45;;
79480;SDS011;68944;48.262;14.208;2024-01-30T13:32:05;38.55;;;18.52;;
79480;SDS011;68944;48.262;14.208;2024-01-30T13:34:30;39.55;;;17.95;;
79480;SDS011;68944;48.262;14.208;2024-01-30T13:36:57;37.75;;;17.00;;
79480;SDS011;68944;48.262;14.208;2024-01-30T13:39:22;37.15;;;17.25;;
79480;SDS011;68944;48.262;14.208;2024-01-30T13:41:48;37.38;;;16.67;;
79480;SDS011;68944;48.262;14.208;2024-01-30T13:44:15;38.15;;;17.23;;
79480;SDS011;68944;48.262;14.208;2024-01-30T13:46:41;42.20;;;18.02;;
79480;SDS011;68944;48.262;14.208;2024-01-30T13:49:07;38.88;;;17.58;;
79480;SDS011;68944;48.262;14.208;2024-01-30T13:51:33;32.70;;;16.08;;
79480;SDS011;68944;48.262;14.208;2024-01-30T13:53:59;38.42;;;17.40;;
79480;SDS011;68944;48.262;14.208;2024-01-30T13:56:24;39.47;;;16.90;;
79480;SDS011;68944;48.262;14.208;2024-01-30T13:58:51;43.63;;;17.17;;
79480;SDS011;68944;48.262;14.208;2024-01-30T14:01:17;39.92;;;17.73;;
79480;SDS011;68944;48.262;14.208;2024-01-30T14:03:43;34.78;;;15.25;;
79480;SDS011;68944;48.262;14.208;2024-01-30T14:06:08;35.75;;;16.48;;